Time;durP1;ratioP1;P1;durP2;ratioP2;P2;SDS_P1;SDS_P2;PMS_P1;PMS_P2;Temp;Humidity;BMP_temperature;BMP_pressure;BME280_temperature;BME280_humidity;BME280_pressure;Samples;Min_cycle;Max_cycle;Signal;HPM_P1;HPM_P2
2023/05/14 00:00:19;;;;;;;14.75;11.20;;;;;;;;;;6125861;23;20050;-52
2023/05/14 00:02:45;;;;;;;15.73;11.27;;;;;;;;;;6125269;23;20466;-54
2023/05/14 00:05:11;;;;;;;16.67;11.20;;;;;;;;;;6124325;23;20025;-52
2023/05/14 00:07:37;;;;;;;13.73;10.52;;;;;;;;;;6124306;23;20014;-54
2023/05/14 00:10:03;;;;;;;18.52;11.32;;;12.00;99.90;;;;;;6126664;23;20026;-53
2023/05/14 00:12:29;;;;;;;16.42;10.48;;;12.00;99.90;;;;;;6126201;23;20021;-55
2023/05/14 00:14:55;;;;;;;16.75;10.50;;;12.00;99.90;;;;;;6124381;23;20852;-53
2023/05/14 00:17:21;;;;;;;16.05;11.18;;;12.00;99.90;;;;;;6123691;23;20014;-53
2023/05/14 00:19:46;;;;;;;15.98;11.10;;;12.00;99.90;;;;;;6125748;23;20024;-56
2023/05/14 00:22:12;;;;;;;15.80;10.77;;;11.90;99.90;;;;;;6126238;23;20347;-56
2023/05/14 00:24:38;;;;;;;13.35;11.07;;;11.90;99.90;;;;;;6125388;23;20024;-55
2023/05/14 00:27:03;;;;;;;14.32;11.05;;;11.90;99.90;;;;;;6126236;23;20089;-56
2023/05/14 00:29:29;;;;;;;14.77;11.00;;;11.80;99.90;;;;;;6126106;23;20010;-55
2023/05/14 00:31:55;;;;;;;13.10;10.50;;;11.80;99.90;;;;;;6126401;23;20101;-55
2023/05/14 00:34:21;;;;;;;13.15;10.73;;;11.80;99.90;;;;;;6126546;23;20018;-56
2023/05/14 00:36:46;;;;;;;14.93;10.40;;;11.80;99.90;;;;;;6126630;23;20021;-56
2023/05/14 00:39:12;;;;;;;17.00;11.32;;;11.70;99.90;;;;;;6126436;23;20010;-56
2023/05/14 00:41:38;;;;;;;15.13;10.50;;;11.70;99.90;;;;;;6126354;23;20018;-55
2023/05/14 00:44:04;;;;;;;15.73;11.85;;;11.70;99.90;;;;;;6100158;23;20020;-55
2023/05/14 00:46:30;;;;;;;14.95;11.23;;;11.60;99.90;;;;;;6126232;23;20014;-56
2023/05/14 00:48:56;;;;;;;14.13;11.02;;;11.60;99.90;;;;;;6126363;23;20014;-52
2023/05/14 00:51:22;;;;;;;14.55;11.30;;;11.60;99.90;;;;;;6126585;23;20017;-54
2023/05/14 00:53:49;;;;;;;15.32;11.88;;;11.50;99.90;;;;;;6126512;23;20014;-53
2023/05/14 00:56:15;;;;;;;14.57;11.13;;;11.50;99.90;;;;;;6126265;23;20047;-56
2023/05/14 00:58:41;;;;;;;14.77;11.10;;;11.50;99.90;;;;;;6126303;23;20088;-56
2023/05/14 01:01:06;;;;;;;16.52;11.30;;;11.50;99.90;;;;;;6125776;23;20052;-55
2023/05/14 01:03:33;;;;;;;17.20;11.80;;;11.40;99.90;;;;;;6126188;23;20033;-53
2023/05/14 01:06:23;;;;;;;16.92;11.45;;;11.40;99.90;;;;;;6126029;23;20057;-54
2023/05/14 01:09:02;;;;;;;16.67;11.55;;;11.40;99.90;;;;;;6099834;23;20476;-55
2023/05/14 01:11:42;;;;;;;16.05;11.80;;;11.40;99.90;;;;;;6125079;23;20466;-55
2023/05/14 01:14:31;;;;;;;17.23;10.95;;;11.40;99.90;;;;;;6126099;23;20020;-55
2023/05/14 01:16:58;;;;;;;16.27;11.65;;;11.30;99.90;;;;;;6126185;23;20024;-52
2023/05/14 01:19:31;;;;;;;16.02;11.43;;;11.30;99.90;;;;;;6122310;23;20417;-56
2023/05/14 01:21:56;;;;;;;15.98;11.80;;;11.30;99.90;;;;;;6122208;23;20514;-51
2023/05/14 01:24:22;;;;;;;17.95;12.05;;;11.30;99.90;;;;;;6123043;23;20022;-55
2023/05/14 01:26:47;;;;;;;14.93;12.00;;;11.30;99.90;;;;;;6124672;23;20308;-56
2023/05/14 01:29:20;;;;;;;14.73;11.50;;;11.30;99.90;;;;;;6126223;23;20017;-55
2023/05/14 01:31:47;;;;;;;14.48;12.05;;;11.20;99.90;;;;;;6125905;23;20014;-54
2023/05/14 01:34:14;;;;;;;15.48;13.00;;;11.20;99.90;;;;;;6125160;23;20025;-55
2023/05/14 01:36:41;;;;;;;17.63;11.87;;;11.20;99.90;;;;;;6125142;23;20016;-55
2023/05/14 01:39:08;;;;;;;15.37;11.90;;;11.20;99.90;;;;;;6124773;23;20011;-56
2023/05/14 01:41:36;;;;;;;14.02;11.88;;;11.20;99.90;;;;;;6127238;23;20014;-53
2023/05/14 01:44:03;;;;;;;14.45;12.05;;;11.10;99.90;;;;;;6128031;23;20045;-55
2023/05/14 01:46:32;;;;;;;19.58;12.55;;;11.10;99.90;;;;;;6127834;23;20021;-54
2023/05/14 01:48:58;;;;;;;20.15;12.13;;;11.10;99.90;;;;;;6127378;23;20462;-55
2023/05/14 01:51:24;;;;;;;15.65;12.75;;;11.00;99.90;;;;;;6128021;23;20086;-54
2023/05/14 01:53:50;;;;;;;17.40;12.30;;;11.00;99.90;;;;;;6127566;23;20068;-56
2023/05/14 01:56:16;;;;;;;15.25;12.80;;;11.00;99.90;;;;;;6127821;23;20010;-54
2023/05/14 01:58:42;;;;;;;15.18;12.73;;;11.00;99.90;;;;;;6127634;23;20021;-53
2023/05/14 02:01:07;;;;;;;15.00;12.20;;;10.90;99.90;;;;;;6127487;23;20018;-51
2023/05/14 02:03:33;;;;;;;16.35;12.13;;;10.90;99.90;;;;;;6127777;23;20331;-52
2023/05/14 02:05:59;;;;;;;18.27;13.40;;;10.90;99.90;;;;;;6127737;23;20018;-55
2023/05/14 02:08:24;;;;;;;16.50;12.65;;;10.90;99.90;;;;;;6127776;23;20022;-51
2023/05/14 02:10:50;;;;;;;15.20;12.35;;;10.90;99.90;;;;;;6127600;23;20386;-52
2023/05/14 02:13:16;;;;;;;18.38;12.27;;;10.80;99.90;;;;;;6127496;23;20010;-54
2023/05/14 02:15:41;;;;;;;13.88;12.50;;;10.80;99.90;;;;;;6127611;23;20010;-52
2023/05/14 02:18:07;;;;;;;15.52;13.68;;;10.80;99.90;;;;;;6127492;23;20046;-55
2023/05/14 02:20:32;;;;;;;14.90;12.55;;;10.80;99.90;;;;;;6127621;23;20045;-54
2023/05/14 02:22:58;;;;;;;17.10;13.23;;;10.70;99.90;;;;;;6127591;23;20347;-55
2023/05/14 02:25:24;;;;;;;15.38;13.25;;;10.70;99.90;;;;;;6126258;23;20018;-50
2023/05/14 02:27:49;;;;;;;20.70;14.20;;;10.70;99.90;;;;;;6124241;23;20014;-53
2023/05/14 02:30:15;;;;;;;16.88;13.00;;;10.70;99.90;;;;;;6123539;23;20018;-54
2023/05/14 02:32:40;;;;;;;16.05;13.35;;;10.70;99.90;;;;;;6123341;23;20014;-54
2023/05/14 02:35:06;;;;;;;20.63;14.23;;;10.70;99.90;;;;;;6124073;23;20455;-53
2023/05/14 02:37:33;;;;;;;17.73;14.40;;;10.60;99.90;;;;;;6127424;23;20018;-55
2023/05/14 02:39:59;;;;;;;17.83;14.55;;;10.60;99.90;;;;;;6125260;23;20371;-52
2023/05/14 02:42:25;;;;;;;18.48;13.75;;;10.50;99.90;;;;;;6123113;23;20038;-52
2023/05/14 02:44:51;;;;;;;16.33;14.57;;;10.50;99.90;;;;;;6125532;23;20113;-55
2023/05/14 02:47:17;;;;;;;17.98;14.55;;;10.50;99.90;;;;;;6126963;23;20112;-51
2023/05/14 02:49:43;;;;;;;20.70;14.65;;;10.50;99.90;;;;;;6127091;23;20017;-51
2023/05/14 02:52:08;;;;;;;19.98;15.00;;;10.40;99.90;;;;;;6101313;23;20014;-54
2023/05/14 02:54:34;;;;;;;20.80;15.50;;;10.40;99.90;;;;;;6126994;23;20018;-53
2023/05/14 02:57:00;;;;;;;17.70;14.18;;;10.40;99.90;;;;;;6123571;23;20382;-54
2023/05/14 02:59:26;;;;;;;16.58;14.88;;;10.40;99.90;;;;;;6121945;23;20018;-51
2023/05/14 03:01:52;;;;;;;17.70;15.10;;;10.40;99.90;;;;;;6124274;23;20093;-53
2023/05/14 03:04:17;;;;;;;16.58;14.90;;;10.40;99.90;;;;;;6127053;23;20054;-52
2023/05/14 03:06:43;;;;;;;19.00;15.60;;;10.30;99.90;;;;;;6126947;23;20070;-52
2023/05/14 03:09:08;;;;;;;18.13;15.30;;;10.30;99.90;;;;;;6127233;23;20018;-54
2023/05/14 03:11:34;;;;;;;23.83;15.70;;;10.30;99.90;;;;;;6127130;23;20455;-55
2023/05/14 03:14:00;;;;;;;21.63;16.88;;;10.30;99.90;;;;;;6126667;23;20021;-54
2023/05/14 03:16:26;;;;;;;20.08;15.82;;;10.30;99.90;;;;;;6127152;23;20014;-53
2023/05/14 03:18:51;;;;;;;22.98;17.42;;;10.30;99.90;;;;;;6126835;23;20022;-54
2023/05/14 03:21:17;;;;;;;20.98;16.00;;;10.30;99.90;;;;;;6126890;23;20343;-56
2023/05/14 03:23:43;;;;;;;23.33;16.65;;;10.30;99.90;;;;;;6126756;23;20053;-53
2023/05/14 03:26:08;;;;;;;21.08;17.13;;;10.20;99.90;;;;;;6127094;23;20017;-51
2023/05/14 03:28:34;;;;;;;21.10;16.13;;;10.30;99.90;;;;;;6126851;23;20014;-54
2023/05/14 03:30:59;;;;;;;25.80;17.10;;;10.20;99.90;;;;;;6126790;23;20017;-54
2023/05/14 03:33:25;;;;;;;20.55;16.63;;;10.20;99.90;;;;;;6127009;23;20454;-56
2023/05/14 03:35:51;;;;;;;17.92;16.02;;;10.20;99.90;;;;;;6123861;23;20028;-55
2023/05/14 03:38:16;;;;;;;20.63;16.98;;;10.20;99.90;;;;;;6123019;23;20474;-55
2023/05/14 03:40:43;;;;;;;21.85;18.10;;;10.30;99.90;;;;;;6122953;23;20047;-55
2023/05/14 03:43:10;;;;;;;21.00;16.73;;;10.30;99.90;;;;;;6124171;23;20018;-54
2023/05/14 03:45:35;;;;;;;21.90;16.52;;;10.30;99.90;;;;;;6123027;23;20053;-54
2023/05/14 03:48:01;;;;;;;18.52;15.88;;;10.20;99.90;;;;;;6123342;23;20018;-54
2023/05/14 03:50:27;;;;;;;19.88;17.77;;;10.20;99.90;;;;;;6125775;23;20021;-54
2023/05/14 03:52:53;;;;;;;22.33;17.00;;;10.20;99.90;;;;;;6126575;23;20367;-52
2023/05/14 03:55:19;;;;;;;24.40;18.23;;;10.20;99.90;;;;;;6126604;23;20014;-54
2023/05/14 03:57:46;;;;;;;20.58;15.90;;;10.20;99.90;;;;;;6126239;23;20347;-53
2023/05/14 04:00:13;;;;;;;19.52;17.05;;;10.20;99.90;;;;;;6126693;23;20014;-53
2023/05/14 04:02:38;;;;;;;22.45;18.13;;;10.20;99.90;;;;;;6125174;23;20030;-54
2023/05/14 04:05:04;;;;;;;19.38;16.20;;;10.20;99.90;;;;;;6122625;23;20017;-54
2023/05/14 04:07:30;;;;;;;22.85;18.40;;;10.20;99.90;;;;;;6123681;23;20017;-54
2023/05/14 04:09:55;;;;;;;22.48;17.17;;;10.20;99.90;;;;;;6122788;23;20334;-57
2023/05/14 04:12:21;;;;;;;27.58;18.45;;;10.20;99.90;;;;;;6123137;23;20342;-54
2023/05/14 04:14:46;;;;;;;23.42;18.27;;;10.30;99.90;;;;;;6123330;23;20014;-54
2023/05/14 04:17:12;;;;;;;23.42;17.25;;;10.20;99.90;;;;;;6123040;23;20093;-51
2023/05/14 04:19:39;;;;;;;23.33;17.25;;;10.30;99.90;;;;;;6124013;23;20018;-52
2023/05/14 04:22:05;;;;;;;24.50;17.95;;;10.30;99.90;;;;;;6123849;23;20018;-53
2023/05/14 04:24:30;;;;;;;20.58;16.98;;;10.30;99.90;;;;;;6124296;23;20099;-56
2023/05/14 04:26:56;;;;;;;20.80;18.20;;;10.30;99.90;;;;;;6122912;23;20028;-56
2023/05/14 04:29:21;;;;;;;21.35;16.02;;;10.40;99.90;;;;;;6124131;23;20010;-53
2023/05/14 04:31:48;;;;;;;18.88;16.95;;;10.40;99.90;;;;;;6123774;23;20021;-56
2023/05/14 04:34:14;;;;;;;18.88;16.27;;;10.50;99.90;;;;;;6123519;23;20024;-54
2023/05/14 04:36:40;;;;;;;20.50;16.35;;;10.50;99.90;;;;;;6123455;23;20348;-55
2023/05/14 04:39:05;;;;;;;22.27;17.77;;;10.60;99.90;;;;;;6124029;23;20339;-55
2023/05/14 04:41:31;;;;;;;23.13;17.58;;;10.60;99.90;;;;;;6123455;23;20046;-54
2023/05/14 04:43:59;;;;;;;23.25;17.52;;;10.70;99.90;;;;;;6123899;23;20014;-55
2023/05/14 04:46:25;;;;;;;24.35;17.20;;;10.70;99.90;;;;;;6122303;23;20025;-55
2023/05/14 04:48:51;;;;;;;19.60;17.10;;;10.80;99.90;;;;;;6122248;23;20526;-54
2023/05/14 04:51:16;;;;;;;19.00;16.13;;;10.90;99.90;;;;;;6121762;23;20053;-55
2023/05/14 04:53:42;;;;;;;27.25;17.23;;;10.90;99.90;;;;;;6122073;23;20380;-55
2023/05/14 04:56:07;;;;;;;23.20;16.80;;;11.00;99.90;;;;;;6121355;23;20018;-55
2023/05/14 04:58:33;;;;;;;19.65;16.88;;;11.10;99.90;;;;;;6119073;23;20470;-55
2023/05/14 05:00:59;;;;;;;20.45;16.60;;;11.30;99.90;;;;;;6121352;23;20018;-54
2023/05/14 05:03:24;;;;;;;24.55;16.45;;;11.30;99.90;;;;;;6121418;23;20455;-54
2023/05/14 05:05:50;;;;;;;18.30;16.20;;;11.50;99.90;;;;;;6122489;23;20018;-52
2023/05/14 05:08:16;;;;;;;25.05;15.65;;;11.70;99.90;;;;;;6121653;23;20101;-54
2023/05/14 05:10:41;;;;;;;21.05;15.73;;;11.80;99.90;;;;;;6124231;23;20049;-54
2023/05/14 05:13:07;;;;;;;20.88;15.98;;;11.70;99.90;;;;;;6124405;23;20025;-55
2023/05/14 05:15:33;;;;;;;19.10;15.77;;;11.80;99.90;;;;;;6126087;23;20072;-51
2023/05/14 05:17:59;;;;;;;19.45;15.30;;;;;;;;;;6124199;23;20017;-51
2023/05/14 05:20:26;;;;;;;21.67;15.55;;;12.00;99.90;;;;;;6120968;23;20057;-55
2023/05/14 05:22:52;;;;;;;19.42;15.18;;;12.20;99.90;;;;;;6122233;23;20022;-56
2023/05/14 05:25:18;;;;;;;18.05;16.15;;;12.50;99.90;;;;;;6125835;23;20044;-56
2023/05/14 05:27:44;;;;;;;19.40;15.18;;;13.00;99.90;;;;;;6125929;23;20031;-51
2023/05/14 05:30:10;;;;;;;19.20;15.75;;;13.70;99.90;;;;;;6125882;23;20021;-55
2023/05/14 05:32:36;;;;;;;18.70;14.70;;;14.10;99.90;;;;;;6126078;23;20076;-55
2023/05/14 05:35:02;;;;;;;16.45;14.68;;;14.50;99.90;;;;;;6125520;23;20014;-53
2023/05/14 05:37:29;;;;;;;17.17;14.10;;;15.00;99.90;;;;;;6099734;23;20461;-54
2023/05/14 05:39:54;;;;;;;16.13;14.43;;;15.30;99.90;;;;;;6125204;23;20029;-57
2023/05/14 05:42:21;;;;;;;16.20;14.30;;;15.80;99.90;;;;;;6125513;23;20238;-56
2023/05/14 05:44:47;;;;;;;19.15;14.05;;;16.10;99.90;;;;;;6126038;23;20342;-54
2023/05/14 05:47:12;;;;;;;15.23;13.25;;;16.40;99.90;;;;;;6125843;23;20018;-54
2023/05/14 05:49:38;;;;;;;17.83;14.23;;;17.10;99.90;;;;;;6125932;23;20342;-53
2023/05/14 05:52:04;;;;;;;14.98;12.90;;;17.80;99.90;;;;;;6125811;23;20458;-55
2023/05/14 05:54:33;;;;;;;15.35;13.10;;;18.40;99.90;;;;;;6125209;23;20096;-54
2023/05/14 05:56:59;;;;;;;13.68;12.27;;;19.00;99.90;;;;;;6125573;23;20021;-54
2023/05/14 05:59:25;;;;;;;14.88;12.10;;;19.60;99.90;;;;;;6125493;23;20072;-52
2023/05/14 06:01:50;;;;;;;14.23;12.73;;;20.10;99.90;;;;;;6124817;23;20022;-54
2023/05/14 06:04:16;;;;;;;14.75;12.75;;;20.50;99.90;;;;;;6123791;23;20330;-54
2023/05/14 06:06:41;;;;;;;14.90;11.20;;;20.10;99.90;;;;;;6126037;23;20050;-56
2023/05/14 06:09:08;;;;;;;14.90;11.25;;;19.80;99.90;;;;;;6124350;23;20112;-52
2023/05/14 06:11:34;;;;;;;12.32;11.00;;;19.90;99.90;;;;;;6125412;23;20090;-54
2023/05/14 06:13:59;;;;;;;12.23;10.57;;;19.60;99.90;;;;;;6125000;23;20045;-54
2023/05/14 06:16:25;;;;;;;13.90;11.32;;;19.20;99.90;;;;;;6125634;23;20018;-53
2023/05/14 06:18:51;;;;;;;13.02;11.32;;;18.90;99.90;;;;;;6124730;23;20022;-51
2023/05/14 06:21:17;;;;;;;12.55;11.25;;;19.10;99.90;;;;;;6125085;23;20053;-51
2023/05/14 06:23:43;;;;;;;11.80;10.65;;;18.60;99.90;;;;;;6125476;23;20320;-52
2023/05/14 06:26:09;;;;;;;16.70;11.60;;;18.50;99.90;;;;;;6125123;23;20046;-51
2023/05/14 06:28:34;;;;;;;14.13;11.60;;;18.10;99.90;;;;;;6126024;23;20077;-56
2023/05/14 06:31:00;;;;;;;13.85;10.93;;;18.00;99.90;;;;;;6123174;23;20021;-51
2023/05/14 06:33:29;;;;;;;14.25;10.98;;;17.70;99.90;;;;;;6098219;23;20014;-55
2023/05/14 06:35:59;;;;;;;12.63;11.32;;;17.70;99.90;;;;;;6126252;23;20018;-54
2023/05/14 06:38:25;;;;;;;14.57;11.40;;;18.20;99.90;;;;;;6124099;23;20025;-56
2023/05/14 06:40:54;;;;;;;14.23;10.60;;;18.10;99.90;;;;;;6123497;23;20050;-54
2023/05/14 06:43:19;;;;;;;14.93;12.18;;;18.40;99.90;;;;;;6125098;23;20018;-54
2023/05/14 06:45:48;;;;;;;12.27;11.05;;;18.60;99.90;;;;;;6124602;23;20037;-51
2023/05/14 06:48:14;;;;;;;14.27;10.63;;;19.10;99.90;;;;;;6124155;23;20021;-54
2023/05/14 06:50:39;;;;;;;12.73;11.50;;;19.30;99.90;;;;;;6124944;23;20033;-52
2023/05/14 06:53:05;;;;;;;12.27;10.93;;;19.80;99.90;;;;;;6126346;23;20017;-53
2023/05/14 06:55:31;;;;;;;13.63;11.20;;;19.70;99.90;;;;;;6126042;23;20022;-52
2023/05/14 06:57:56;;;;;;;13.32;11.00;;;19.60;99.90;;;;;;6126637;23;20022;-52
2023/05/14 07:00:22;;;;;;;12.23;10.82;;;19.40;99.90;;;;;;6124928;23;20022;-53
2023/05/14 07:02:47;;;;;;;13.23;10.73;;;19.70;99.90;;;;;;6124113;23;20447;-54
2023/05/14 07:05:13;;;;;;;11.70;10.50;;;19.50;99.90;;;;;;6124688;23;20044;-55
2023/05/14 07:07:39;;;;;;;12.50;11.15;;;19.40;99.90;;;;;;6124141;23;20018;-54
2023/05/14 07:10:05;;;;;;;13.23;11.25;;;19.30;99.90;;;;;;6123716;23;20014;-56
2023/05/14 07:12:31;;;;;;;14.45;10.40;;;19.60;99.90;;;;;;6122529;23;20049;-56
2023/05/14 07:14:56;;;;;;;10.80;9.75;;;20.00;99.90;;;;;;6121617;23;20022;-57
2023/05/14 07:17:22;;;;;;;13.30;10.65;;;20.70;99.90;;;;;;6121039;23;20085;-56
2023/05/14 07:19:47;;;;;;;13.25;10.77;;;21.30;99.90;;;;;;6123309;23;20323;-57
2023/05/14 07:22:13;;;;;;;13.00;10.35;;;21.80;99.90;;;;;;6122632;23;20053;-57
2023/05/14 07:24:38;;;;;;;10.75;9.70;;;22.40;99.90;;;;;;6122602;23;20022;-56
2023/05/14 07:27:05;;;;;;;10.90;9.43;;;22.60;99.90;;;;;;6122438;23;20025;-56
2023/05/14 07:29:33;;;;;;;11.15;10.02;;;22.40;99.90;;;;;;6122852;23;20014;-55
2023/05/14 07:31:59;;;;;;;12.07;10.10;;;22.20;99.90;;;;;;6122042;23;20017;-57
2023/05/14 07:34:25;;;;;;;11.55;9.38;;;22.20;99.90;;;;;;6121530;23;20026;-56
2023/05/14 07:36:51;;;;;;;10.23;9.20;;;21.70;99.90;;;;;;6121709;23;20018;-57
2023/05/14 07:39:16;;;;;;;11.35;9.80;;;21.50;99.90;;;;;;6122126;23;20493;-57
2023/05/14 07:41:42;;;;;;;11.68;9.80;;;20.90;99.90;;;;;;6121630;23;20056;-56
2023/05/14 07:44:08;;;;;;;11.57;9.88;;;20.60;99.90;;;;;;6122872;23;20021;-57
2023/05/14 07:46:33;;;;;;;10.40;9.40;;;20.20;99.90;;;;;;6121973;23;20057;-56
2023/05/14 07:48:59;;;;;;;11.20;10.10;;;20.00;99.90;;;;;;6121706;23;20044;-56
2023/05/14 07:51:27;;;;;;;10.63;9.52;;;19.90;99.90;;;;;;6122658;23;20014;-53
2023/05/14 07:53:55;;;;;;;10.85;8.57;;;19.80;99.90;;;;;;6122450;23;20021;-52
2023/05/14 07:56:21;;;;;;;12.75;9.38;;;19.90;99.90;;;;;;6121723;23;20085;-55
2023/05/14 07:58:47;;;;;;;10.35;8.73;;;19.90;99.90;;;;;;6122921;23;20020;-57
2023/05/14 08:01:13;;;;;;;11.13;8.40;;;19.70;99.90;;;;;;6121703;23;20085;-56
2023/05/14 08:03:38;;;;;;;12.00;9.07;;;19.30;99.90;;;;;;6120243;23;20097;-57
2023/05/14 08:06:05;;;;;;;11.63;9.20;;;19.30;99.90;;;;;;6122696;23;20046;-56
2023/05/14 08:08:30;;;;;;;10.23;8.88;;;19.30;99.90;;;;;;6123770;23;20466;-53
2023/05/14 08:10:56;;;;;;;10.90;9.90;;;19.40;99.90;;;;;;6123549;23;20029;-56
2023/05/14 08:13:21;;;;;;;11.07;9.98;;;19.30;99.90;;;;;;6122412;23;20010;-56
2023/05/14 08:15:47;;;;;;;10.75;9.65;;;19.20;99.90;;;;;;6121898;23;20438;-57
2023/05/14 08:18:13;;;;;;;10.45;9.32;;;19.30;99.90;;;;;;6122705;23;20017;-56
2023/05/14 08:20:38;;;;;;;12.88;9.68;;;19.50;99.90;;;;;;6121011;23;20092;-57
2023/05/14 08:23:04;;;;;;;12.05;10.07;;;19.10;99.90;;;;;;6122011;23;20020;-58
2023/05/14 08:25:29;;;;;;;13.77;9.60;;;18.90;99.90;;;;;;6122218;23;20349;-57
2023/05/14 08:27:55;;;;;;;10.55;9.45;;;19.30;99.90;;;;;;6122831;23;20091;-57
2023/05/14 08:30:21;;;;;;;11.88;10.65;;;19.20;99.90;;;;;;6123929;23;20482;-58
2023/05/14 08:32:47;;;;;;;11.48;10.32;;;19.20;99.90;;;;;;6124038;23;20081;-56
2023/05/14 08:35:12;;;;;;;11.88;10.38;;;19.40;99.90;;;;;;6123562;23;20025;-56
2023/05/14 08:37:38;;;;;;;11.93;10.70;;;19.60;99.90;;;;;;6121613;23;20025;-57
2023/05/14 08:40:04;;;;;;;11.40;10.20;;;19.70;99.90;;;;;;6122325;23;20014;-56
2023/05/14 08:42:30;;;;;;;11.93;10.73;;;19.50;99.90;;;;;;6120575;23;20426;-58
2023/05/14 08:45:04;;;;;;;12.57;10.48;;;19.90;99.90;;;;;;6121541;23;20022;-57
2023/05/14 08:47:30;;;;;;;13.60;11.50;;;19.90;99.90;;;;;;6118335;23;20088;-57
2023/05/14 08:50:05;;;;;;;12.68;11.48;;;20.00;99.90;;;;;;6119213;23;20025;-57
2023/05/14 08:52:31;;;;;;;16.13;11.48;;;19.70;99.90;;;;;;6094142;23;20025;-57
2023/05/14 08:55:03;;;;;;;13.65;11.30;;;19.50;99.90;;;;;;6122838;23;20092;-56
2023/05/14 08:57:30;;;;;;;12.52;11.30;;;19.50;99.90;;;;;;6125012;23;20028;-57
2023/05/14 08:59:57;;;;;;;12.57;11.27;;;19.90;99.90;;;;;;6124862;23;20116;-57
2023/05/14 09:02:28;;;;;;;12.15;10.93;;;20.00;99.90;;;;;;6123867;23;20087;-57
2023/05/14 09:04:56;;;;;;;12.18;11.05;;;20.20;99.90;;;;;;6123810;23;20061;-56
2023/05/14 09:07:23;;;;;;;12.60;11.30;;;20.40;99.90;;;;;;6120970;23;20014;-56
2023/05/14 09:09:49;;;;;;;12.88;10.35;;;20.60;99.90;;;;;;6121372;23;20021;-56
2023/05/14 09:12:15;;;;;;;11.68;10.57;;;20.50;99.90;;;;;;6121069;23;20018;-56
2023/05/14 09:14:41;;;;;;;12.60;11.30;;;20.80;99.90;;;;;;6120554;23;20025;-57
2023/05/14 09:17:07;;;;;;;12.38;11.18;;;20.60;99.90;;;;;;6121773;23;20018;-55
2023/05/14 09:19:33;;;;;;;11.90;10.73;;;20.60;99.90;;;;;;6121389;23;20211;-57
2023/05/14 09:21:59;;;;;;;10.55;9.52;;;20.70;99.90;;;;;;6120566;23;20024;-55
2023/05/14 09:24:27;;;;;;;12.82;10.02;;;21.10;99.90;;;;;;6119855;23;20405;-56
2023/05/14 09:26:55;;;;;;;12.68;8.60;;;21.20;99.90;;;;;;6118179;23;20022;-58
2023/05/14 09:29:24;;;;;;;10.32;9.10;;;20.80;99.90;;;;;;6122743;23;20018;-55
2023/05/14 09:31:51;;;;;;;13.85;10.07;;;20.60;99.90;;;;;;6120777;23;20017;-56
2023/05/14 09:34:23;;;;;;;9.70;8.70;;;20.60;99.90;;;;;;6121233;23;20126;-56
2023/05/14 09:36:49;;;;;;;12.77;8.57;;;20.90;99.90;;;;;;6122124;23;20073;-58
2023/05/14 09:39:14;;;;;;;9.30;8.50;;;21.00;99.90;;;;;;6097321;23;20018;-58
2023/05/14 09:41:40;;;;;;;11.77;8.48;;;21.00;99.90;;;;;;6123446;23;20022;-55
2023/05/14 09:44:06;;;;;;;10.55;8.20;;;21.00;99.90;;;;;;6121832;23;20033;-57
2023/05/14 09:46:31;;;;;;;9.52;8.25;;;20.90;99.90;;;;;;6120800;23;20021;-56
2023/05/14 09:48:57;;;;;;;13.10;8.82;;;20.80;99.90;;;;;;6123833;23;20429;-57
2023/05/14 09:51:23;;;;;;;9.15;8.30;;;21.00;99.90;;;;;;6122575;23;20025;-58
2023/05/14 09:53:52;;;;;;;9.23;8.30;;;21.00;99.90;;;;;;6120696;23;20331;-58
2023/05/14 09:56:18;;;;;;;9.15;8.25;;;20.90;99.90;;;;;;6120314;23;20014;-57
2023/05/14 09:58:44;;;;;;;9.77;8.55;;;21.00;99.90;;;;;;6119492;23;20054;-56
2023/05/14 10:01:10;;;;;;;8.90;8.00;;;21.00;99.90;;;;;;6120984;23;20092;-56
2023/05/14 10:03:37;;;;;;;9.63;8.30;;;21.20;99.90;;;;;;6120762;23;20076;-57
2023/05/14 10:06:05;;;;;;;9.23;8.10;;;21.30;99.90;;;;;;6122540;23;20464;-57
2023/05/14 10:08:35;;;;;;;10.27;8.20;;;21.10;99.90;;;;;;6122356;23;20458;-55
2023/05/14 10:11:04;;;;;;;8.82;7.63;;;21.30;99.90;;;;;;6122195;23;20022;-56
2023/05/14 10:13:36;;;;;;;9.07;8.05;;;21.50;99.90;;;;;;6145340;23;20036;-57
2023/05/14 10:16:20;;;;;;;11.00;7.93;;;21.30;99.90;;;;;;6183961;23;20409;-57
2023/05/14 10:18:51;;;;;;;11.40;7.85;;;21.30;99.90;;;;;;6184880;23;20315;-57
2023/05/14 10:21:20;;;;;;;8.95;7.57;;;21.00;99.90;;;;;;6185155;23;20337;-54
2023/05/14 10:23:47;;;;;;;7.88;7.00;;;20.80;99.90;;;;;;6184886;23;20017;-54
2023/05/14 10:26:13;;;;;;;10.25;8.40;;;21.20;99.90;;;;;;6184124;23;20009;-57
2023/05/14 10:28:38;;;;;;;10.32;7.97;;;21.30;99.90;;;;;;6182006;23;20035;-57
2023/05/14 10:31:04;;;;;;;8.85;7.95;;;21.80;99.90;;;;;;6181465;23;20029;-57
2023/05/14 10:33:46;;;;;;;9.25;7.65;;;21.60;99.90;;;;;;6180707;23;20383;-58
2023/05/14 10:36:11;;;;;;;9.25;8.25;;;21.40;99.90;;;;;;6181511;23;20017;-56
2023/05/14 10:38:37;;;;;;;8.20;6.97;;;21.40;99.90;;;;;;6182105;23;20013;-55
2023/05/14 10:41:09;;;;;;;12.02;8.27;;;21.60;99.90;;;;;;6182584;23;20013;-57
2023/05/14 10:43:37;;;;;;;9.88;7.60;;;21.50;99.90;;;;;;6182747;23;20021;-57
2023/05/14 10:46:03;;;;;;;9.50;7.82;;;21.70;99.90;;;;;;6183697;23;20009;-57
2023/05/14 10:48:30;;;;;;;8.98;7.70;;;21.90;99.90;;;;;;6182579;23;20032;-56
2023/05/14 10:50:56;;;;;;;10.05;7.88;;;21.90;99.90;;;;;;6182900;23;20350;-57
2023/05/14 10:53:41;;;;;;;8.65;7.40;;;21.90;99.90;;;;;;6183475;23;20032;-53
2023/05/14 10:56:12;;;;;;;11.02;7.45;;;21.90;99.90;;;;;;6183062;23;20024;-56
2023/05/14 10:58:41;;;;;;;9.15;7.32;;;22.50;99.90;;;;;;6183074;23;20028;-56
2023/05/14 11:01:09;;;;;;;8.65;7.72;;;22.90;99.90;;;;;;6185741;23;20017;-56
2023/05/14 11:03:44;;;;;;;;;;;23.30;99.90;;;;;;6211878;23;20027;-57
2023/05/14 11:06:12;;;;;;;11.45;7.50;;;23.00;99.90;;;;;;6210631;23;19922;-56
2023/05/14 11:08:39;;;;;;;7.75;6.68;;;;;;;;;;6211159;23;20044;-58
2023/05/14 11:11:05;;;;;;;10.60;6.53;;;23.30;97.10;;;;;;6213945;23;20468;-57
2023/05/14 11:13:33;;;;;;;9.05;7.35;;;23.30;97.50;;;;;;6214235;23;20711;-58
2023/05/14 11:16:00;;;;;;;7.82;7.10;;;23.00;97.50;;;;;;6213679;23;20012;-58
2023/05/14 11:18:32;;;;;;;7.75;6.72;;;22.90;97.60;;;;;;6212247;23;20448;-57
2023/05/14 11:20:59;;;;;;;6.57;5.97;;;23.00;99.90;;;;;;6213273;23;20539;-58
2023/05/14 11:23:25;;;;;;;9.35;6.95;;;23.10;98.70;;;;;;6212207;23;20052;-54
2023/05/14 11:25:55;;;;;;;7.20;5.70;;;23.20;98.80;;;;;;6212772;23;20429;-56
2023/05/14 11:28:25;;;;;;;11.25;7.05;;;23.40;96.80;;;;;;6214511;23;20131;-56
2023/05/14 11:30:51;;;;;;;6.43;5.82;;;22.80;95.80;;;;;;6187178;23;20028;-54
2023/05/14 11:33:18;;;;;;;8.53;6.23;;;23.10;97.20;;;;;;6211740;23;20380;-56
2023/05/14 11:35:45;;;;;;;7.10;6.40;;;23.40;97.30;;;;;;6210717;23;20098;-55
2023/05/14 11:38:17;;;;;;;9.23;7.32;;;23.30;97.30;;;;;;6209758;23;20017;-54
2023/05/14 11:40:57;;;;;;;7.75;6.97;;;23.40;97.60;;;;;;6212741;23;20008;-56
2023/05/14 11:43:23;;;;;;;9.45;7.28;;;23.70;96.90;;;;;;6213582;23;20075;-56
2023/05/14 11:45:50;;;;;;;9.60;7.80;;;23.30;96.70;;;;;;6214264;23;20017;-56
2023/05/14 11:48:17;;;;;;;8.55;7.78;;;23.00;97.30;;;;;;6212229;23;20040;-56
2023/05/14 11:50:48;;;;;;;8.52;7.72;;;23.20;97.50;;;;;;6203219;23;20031;-56
2023/05/14 11:53:32;;;;;;;9.27;7.40;;;23.20;97.40;;;;;;6207230;23;20488;-55
2023/05/14 11:55:58;;;;;;;8.30;6.63;;;23.40;97.20;;;;;;6204628;23;20092;-56
2023/05/14 11:58:24;;;;;;;10.00;6.03;;;23.60;97.90;;;;;;6210159;23;20036;-56
2023/05/14 12:00:51;;;;;;;7.75;7.05;;;23.80;98.50;;;;;;6205827;23;20016;-56
2023/05/14 12:03:24;;;;;;;6.90;6.15;;;24.10;97.20;;;;;;6210641;23;20066;-55
2023/05/14 12:06:01;;;;;;;8.07;5.40;;;24.30;97.00;;;;;;6207482;23;20310;-55
2023/05/14 12:08:29;;;;;;;5.93;5.00;;;24.10;95.90;;;;;;6211001;23;20066;-56
2023/05/14 12:10:55;;;;;;;6.30;5.22;;;23.60;93.60;;;;;;6208816;23;20126;-55
2023/05/14 12:13:23;;;;;;;7.38;5.40;;;23.50;94.40;;;;;;6207781;23;20021;-56
2023/05/14 12:15:58;;;;;;;6.65;6.03;;;23.40;93.30;;;;;;6211649;23;20021;-56
2023/05/14 12:18:25;;;;;;;6.25;5.65;;;23.50;94.60;;;;;;6211024;23;20064;-56
2023/05/14 12:20:51;;;;;;;6.88;5.47;;;23.50;94.00;;;;;;6210222;23;20519;-56
2023/05/14 12:23:24;;;;;;;5.35;4.55;;;23.60;93.40;;;;;;6209420;23;20016;-54
2023/05/14 12:25:50;;;;;;;6.15;4.43;;;23.80;93.90;;;;;;6206748;23;20038;-54
2023/05/14 12:28:17;;;;;;;6.63;4.90;;;23.70;92.10;;;;;;6205783;23;20441;-55
2023/05/14 12:30:42;;;;;;;7.63;4.30;;;23.60;92.40;;;;;;6209666;23;20020;-57